sensor_id;sensor_type;location;lat;lon;timestamp;P1;durP1;ratioP1;P2;durP2;ratioP2
19965;SDS011;10144;50.874;4.762;2022-08-19T00:05:14;37.97;;;17.95;;
19965;SDS011;10144;50.874;4.762;2022-08-19T00:14:25;28.52;;;17.15;;
19965;SDS011;10144;50.874;4.762;2022-08-19T00:20:16;33.97;;;17.95;;
19965;SDS011;10144;50.874;4.762;2022-08-19T00:26:06;34.20;;;18.10;;
19965;SDS011;10144;50.874;4.762;2022-08-19T00:31:54;36.10;;;18.67;;
19965;SDS011;10144;50.874;4.762;2022-08-19T00:37:43;38.20;;;19.92;;
19965;SDS011;10144;50.874;4.762;2022-08-19T00:45:54;35.95;;;19.83;;
19965;SDS011;10144;50.874;4.762;2022-08-19T00:48:26;37.72;;;21.00;;
19965;SDS011;10144;50.874;4.762;2022-08-19T00:50:54;38.30;;;20.27;;
19965;SDS011;10144;50.874;4.762;2022-08-19T00:53:21;37.78;;;20.45;;
19965;SDS011;10144;50.874;4.762;2022-08-19T00:55:51;40.25;;;20.00;;
19965;SDS011;10144;50.874;4.762;2022-08-19T00:58:20;35.92;;;19.23;;
19965;SDS011;10144;50.874;4.762;2022-08-19T01:00:57;43.40;;;21.15;;
19965;SDS011;10144;50.874;4.762;2022-08-19T01:03:25;42.50;;;23.48;;
19965;SDS011;10144;50.874;4.762;2022-08-19T01:05:51;49.63;;;25.25;;
19965;SDS011;10144;50.874;4.762;2022-08-19T01:08:19;55.33;;;25.38;;
19965;SDS011;10144;50.874;4.762;2022-08-19T01:10:47;52.42;;;25.48;;
19965;SDS011;10144;50.874;4.762;2022-08-19T01:13:24;61.30;;;28.85;;
19965;SDS011;10144;50.874;4.762;2022-08-19T01:16:09;55.80;;;27.52;;
19965;SDS011;10144;50.874;4.762;2022-08-19T01:18:40;63.65;;;29.65;;
19965;SDS011;10144;50.874;4.762;2022-08-19T01:23:42;70.15;;;30.92;;
19965;SDS011;10144;50.874;4.762;2022-08-19T01:26:14;71.20;;;31.30;;
19965;SDS011;10144;50.874;4.762;2022-08-19T01:28:46;65.00;;;30.15;;
19965;SDS011;10144;50.874;4.762;2022-08-19T01:31:17;68.22;;;30.80;;
19965;SDS011;10144;50.874;4.762;2022-08-19T01:33:48;81.40;;;33.67;;
19965;SDS011;10144;50.874;4.762;2022-08-19T01:36:30;73.50;;;32.30;;
19965;SDS011;10144;50.874;4.762;2022-08-19T01:38:58;83.13;;;33.88;;
19965;SDS011;10144;50.874;4.762;2022-08-19T01:41:28;77.10;;;32.97;;
19965;SDS011;10144;50.874;4.762;2022-08-19T01:43:55;75.25;;;31.70;;
19965;SDS011;10144;50.874;4.762;2022-08-19T01:49:49;81.93;;;32.90;;
19965;SDS011;10144;50.874;4.762;2022-08-19T01:55:39;78.10;;;32.33;;
19965;SDS011;10144;50.874;4.762;2022-08-19T02:01:29;86.65;;;34.90;;
19965;SDS011;10144;50.874;4.762;2022-08-19T02:07:19;78.90;;;31.88;;
19965;SDS011;10144;50.874;4.762;2022-08-19T02:13:11;79.28;;;32.92;;
19965;SDS011;10144;50.874;4.762;2022-08-19T02:19:00;84.80;;;34.72;;
19965;SDS011;10144;50.874;4.762;2022-08-19T02:24:48;90.72;;;36.60;;
19965;SDS011;10144;50.874;4.762;2022-08-19T02:30:37;90.53;;;37.45;;
19965;SDS011;10144;50.874;4.762;2022-08-19T02:33:13;86.85;;;33.88;;
19965;SDS011;10144;50.874;4.762;2022-08-19T02:35:47;91.00;;;35.63;;
19965;SDS011;10144;50.874;4.762;2022-08-19T02:38:15;83.97;;;33.88;;
19965;SDS011;10144;50.874;4.762;2022-08-19T02:40:51;82.25;;;33.03;;
19965;SDS011;10144;50.874;4.762;2022-08-19T02:43:20;88.75;;;34.22;;
19965;SDS011;10144;50.874;4.762;2022-08-19T02:45:49;87.82;;;34.25;;
19965;SDS011;10144;50.874;4.762;2022-08-19T02:48:17;83.38;;;33.90;;
19965;SDS011;10144;50.874;4.762;2022-08-19T02:50:52;93.50;;;34.85;;
19965;SDS011;10144;50.874;4.762;2022-08-19T02:53:24;85.65;;;34.78;;
19965;SDS011;10144;50.874;4.762;2022-08-19T02:55:53;88.10;;;35.17;;
19965;SDS011;10144;50.874;4.762;2022-08-19T02:58:23;91.70;;;35.75;;
19965;SDS011;10144;50.874;4.762;2022-08-19T03:00:54;88.65;;;35.00;;
19965;SDS011;10144;50.874;4.762;2022-08-19T03:03:26;89.45;;;35.15;;
19965;SDS011;10144;50.874;4.762;2022-08-19T03:06:04;84.03;;;35.03;;
19965;SDS011;10144;50.874;4.762;2022-08-19T03:08:34;84.22;;;34.20;;
19965;SDS011;10144;50.874;4.762;2022-08-19T03:11:02;80.68;;;33.70;;
19965;SDS011;10144;50.874;4.762;2022-08-19T03:16:51;88.97;;;33.50;;
19965;SDS011;10144;50.874;4.762;2022-08-19T03:19:26;80.88;;;33.50;;
19965;SDS011;10144;50.874;4.762;2022-08-19T03:31:42;74.57;;;30.63;;
19965;SDS011;10144;50.874;4.762;2022-08-19T03:37:30;75.55;;;32.08;;
19965;SDS011;10144;50.874;4.762;2022-08-19T03:43:19;78.93;;;33.13;;
19965;SDS011;10144;50.874;4.762;2022-08-19T03:49:08;69.85;;;30.00;;
19965;SDS011;10144;50.874;4.762;2022-08-19T03:54:05;67.53;;;29.40;;
19965;SDS011;10144;50.874;4.762;2022-08-19T03:56:43;73.32;;;30.70;;
19965;SDS011;10144;50.874;4.762;2022-08-19T04:08:01;71.13;;;30.52;;
19965;SDS011;10144;50.874;4.762;2022-08-19T04:23:13;66.40;;;28.33;;
19965;SDS011;10144;50.874;4.762;2022-08-19T04:25:41;68.22;;;28.63;;
19965;SDS011;10144;50.874;4.762;2022-08-19T04:28:09;63.00;;;28.48;;
19965;SDS011;10144;50.874;4.762;2022-08-19T04:33:59;64.03;;;27.85;;
19965;SDS011;10144;50.874;4.762;2022-08-19T04:39:49;63.85;;;27.27;;
19965;SDS011;10144;50.874;4.762;2022-08-19T04:45:55;66.38;;;26.58;;
19965;SDS011;10144;50.874;4.762;2022-08-19T04:51:44;61.45;;;26.08;;
19965;SDS011;10144;50.874;4.762;2022-08-19T04:57:35;61.33;;;24.52;;
19965;SDS011;10144;50.874;4.762;2022-08-19T05:03:27;53.08;;;24.15;;
19965;SDS011;10144;50.874;4.762;2022-08-19T05:09:18;55.95;;;23.65;;
19965;SDS011;10144;50.874;4.762;2022-08-19T05:15:08;60.30;;;24.92;;
19965;SDS011;10144;50.874;4.762;2022-08-19T05:20:57;58.22;;;23.27;;
19965;SDS011;10144;50.874;4.762;2022-08-19T05:27:05;51.10;;;21.73;;
19965;SDS011;10144;50.874;4.762;2022-08-19T05:32:55;50.08;;;20.58;;
19965;SDS011;10144;50.874;4.762;2022-08-19T05:35:44;51.08;;;21.20;;
19965;SDS011;10144;50.874;4.762;2022-08-19T05:38:13;54.17;;;22.08;;
19965;SDS011;10144;50.874;4.762;2022-08-19T05:40:38;52.40;;;20.85;;
19965;SDS011;10144;50.874;4.762;2022-08-19T05:43:06;56.28;;;22.65;;
19965;SDS011;10144;50.874;4.762;2022-08-19T05:45:32;57.90;;;22.55;;
19965;SDS011;10144;50.874;4.762;2022-08-19T05:48:04;49.83;;;21.40;;
19965;SDS011;10144;50.874;4.762;2022-08-19T05:50:30;53.42;;;22.10;;
19965;SDS011;10144;50.874;4.762;2022-08-19T05:52:58;51.15;;;22.08;;
19965;SDS011;10144;50.874;4.762;2022-08-19T05:55:24;51.42;;;20.90;;
19965;SDS011;10144;50.874;4.762;2022-08-19T06:01:13;52.28;;;20.13;;
19965;SDS011;10144;50.874;4.762;2022-08-19T06:09:50;52.50;;;20.83;;
19965;SDS011;10144;50.874;4.762;2022-08-19T06:12:31;47.15;;;21.35;;
19965;SDS011;10144;50.874;4.762;2022-08-19T06:15:03;51.70;;;21.83;;
19965;SDS011;10144;50.874;4.762;2022-08-19T06:17:32;52.33;;;21.13;;
19965;SDS011;10144;50.874;4.762;2022-08-19T06:20:01;50.28;;;21.55;;
19965;SDS011;10144;50.874;4.762;2022-08-19T06:22:30;46.80;;;21.25;;
19965;SDS011;10144;50.874;4.762;2022-08-19T06:24:56;51.08;;;21.15;;
19965;SDS011;10144;50.874;4.762;2022-08-19T06:32:46;45.72;;;19.83;;
19965;SDS011;10144;50.874;4.762;2022-08-19T06:35:17;42.05;;;19.25;;
19965;SDS011;10144;50.874;4.762;2022-08-19T06:37:44;39.20;;;17.95;;
19965;SDS011;10144;50.874;4.762;2022-08-19T06:43:43;34.90;;;16.30;;
19965;SDS011;10144;50.874;4.762;2022-08-19T06:46:10;38.03;;;16.55;;
19965;SDS011;10144;50.874;4.762;2022-08-19T06:48:38;34.83;;;15.55;;
19965;SDS011;10144;50.874;4.762;2022-08-19T06:51:04;34.08;;;16.33;;
19965;SDS011;10144;50.874;4.762;2022-08-19T06:53:32;33.35;;;14.77;;
19965;SDS011;10144;50.874;4.762;2022-08-19T06:55:58;32.75;;;14.73;;
19965;SDS011;10144;50.874;4.762;2022-08-19T06:58:29;28.17;;;14.18;;
19965;SDS011;10144;50.874;4.762;2022-08-19T07:01:01;31.27;;;13.88;;
19965;SDS011;10144;50.874;4.762;2022-08-19T07:03:31;29.58;;;13.13;;
19965;SDS011;10144;50.874;4.762;2022-08-19T07:06:13;27.52;;;12.23;;
19965;SDS011;10144;50.874;4.762;2022-08-19T07:08:44;24.10;;;11.73;;
19965;SDS011;10144;50.874;4.762;2022-08-19T07:13:59;23.42;;;10.88;;
19965;SDS011;10144;50.874;4.762;2022-08-19T07:16:29;26.35;;;11.27;;
19965;SDS011;10144;50.874;4.762;2022-08-19T07:18:55;20.23;;;10.18;;
19965;SDS011;10144;50.874;4.762;2022-08-19T07:21:28;23.42;;;10.55;;
19965;SDS011;10144;50.874;4.762;2022-08-19T07:23:56;26.17;;;10.25;;
19965;SDS011;10144;50.874;4.762;2022-08-19T07:26:26;18.83;;;9.38;;
19965;SDS011;10144;50.874;4.762;2022-08-19T07:28:58;19.35;;;9.18;;
19965;SDS011;10144;50.874;4.762;2022-08-19T07:31:40;21.70;;;9.23;;
19965;SDS011;10144;50.874;4.762;2022-08-19T07:34:18;15.65;;;8.68;;
19965;SDS011;10144;50.874;4.762;2022-08-19T07:36:54;19.30;;;8.93;;
19965;SDS011;10144;50.874;4.762;2022-08-19T07:39:23;16.13;;;8.40;;
19965;SDS011;10144;50.874;4.762;2022-08-19T07:41:54;15.35;;;8.07;;
19965;SDS011;10144;50.874;4.762;2022-08-19T07:44:27;16.35;;;7.55;;
19965;SDS011;10144;50.874;4.762;2022-08-19T07:46:55;18.13;;;7.05;;
19965;SDS011;10144;50.874;4.762;2022-08-19T07:49:23;14.65;;;7.22;;
19965;SDS011;10144;50.874;4.762;2022-08-19T07:51:51;13.55;;;6.50;;
19965;SDS011;10144;50.874;4.762;2022-08-19T07:54:22;13.48;;;6.80;;
19965;SDS011;10144;50.874;4.762;2022-08-19T07:56:50;12.57;;;6.47;;
19965;SDS011;10144;50.874;4.762;2022-08-19T07:59:19;14.70;;;6.32;;
19965;SDS011;10144;50.874;4.762;2022-08-19T08:01:47;13.20;;;5.88;;
19965;SDS011;10144;50.874;4.762;2022-08-19T08:04:15;11.00;;;5.78;;
19965;SDS011;10144;50.874;4.762;2022-08-19T08:07:00;10.25;;;5.25;;
19965;SDS011;10144;50.874;4.762;2022-08-19T08:09:44;8.35;;;4.55;;
19965;SDS011;10144;50.874;4.762;2022-08-19T08:12:20;10.07;;;4.40;;
19965;SDS011;10144;50.874;4.762;2022-08-19T08:14:56;8.18;;;4.57;;
19965;SDS011;10144;50.874;4.762;2022-08-19T08:17:29;9.13;;;4.43;;
19965;SDS011;10144;50.874;4.762;2022-08-19T08:19:56;8.95;;;4.60;;
19965;SDS011;10144;50.874;4.762;2022-08-19T08:22:22;9.45;;;4.78;;
19965;SDS011;10144;50.874;4.762;2022-08-19T08:25:11;8.45;;;3.65;;
19965;SDS011;10144;50.874;4.762;2022-08-19T08:27:45;6.00;;;3.78;;
19965;SDS011;10144;50.874;4.762;2022-08-19T08:30:20;7.18;;;3.97;;
19965;SDS011;10144;50.874;4.762;2022-08-19T08:32:48;13.10;;;4.38;;
19965;SDS011;10144;50.874;4.762;2022-08-19T08:35:16;7.57;;;4.05;;
19965;SDS011;10144;50.874;4.762;2022-08-19T08:37:50;9.25;;;4.75;;
19965;SDS011;10144;50.874;4.762;2022-08-19T08:43:38;7.38;;;4.13;;
19965;SDS011;10144;50.874;4.762;2022-08-19T08:46:05;8.20;;;3.70;;
19965;SDS011;10144;50.874;4.762;2022-08-19T08:51:37;9.27;;;4.60;;
19965;SDS011;10144;50.874;4.762;2022-08-19T08:54:10;10.18;;;4.43;;
19965;SDS011;10144;50.874;4.762;2022-08-19T08:56:40;7.55;;;4.40;;
19965;SDS011;10144;50.874;4.762;2022-08-19T08:59:21;6.95;;;3.97;;
19965;SDS011;10144;50.874;4.762;2022-08-19T09:01:57;9.77;;;4.90;;
19965;SDS011;10144;50.874;4.762;2022-08-19T09:04:26;11.20;;;4.80;;
19965;SDS011;10144;50.874;4.762;2022-08-19T09:16:05;11.75;;;4.90;;
19965;SDS011;10144;50.874;4.762;2022-08-19T09:18:14;8.45;;;4.50;;
19965;SDS011;10144;50.874;4.762;2022-08-19T09:20:43;6.65;;;4.57;;
19965;SDS011;10144;50.874;4.762;2022-08-19T09:23:12;9.40;;;4.70;;
19965;SDS011;10144;50.874;4.762;2022-08-19T09:25:42;6.65;;;4.10;;
19965;SDS011;10144;50.874;4.762;2022-08-19T09:28:10;9.82;;;4.30;;
19965;SDS011;10144;50.874;4.762;2022-08-19T09:30:40;11.45;;;4.18;;
19965;SDS011;10144;50.874;4.762;2022-08-19T09:33:09;7.88;;;3.70;;
19965;SDS011;10144;50.874;4.762;2022-08-19T09:35:37;7.07;;;3.85;;
19965;SDS011;10144;50.874;4.762;2022-08-19T09:38:10;6.85;;;3.85;;
19965;SDS011;10144;50.874;4.762;2022-08-19T09:40:39;8.50;;;3.72;;
19965;SDS011;10144;50.874;4.762;2022-08-19T09:43:06;7.55;;;3.63;;
19965;SDS011;10144;50.874;4.762;2022-08-19T09:45:32;7.97;;;4.00;;
19965;SDS011;10144;50.874;4.762;2022-08-19T09:47:58;7.60;;;3.88;;
19965;SDS011;10144;50.874;4.762;2022-08-19T09:50:24;6.40;;;3.45;;
19965;SDS011;10144;50.874;4.762;2022-08-19T09:52:51;9.05;;;4.00;;
19965;SDS011;10144;50.874;4.762;2022-08-19T09:55:32;6.95;;;4.15;;
19965;SDS011;10144;50.874;4.762;2022-08-19T10:00:31;6.35;;;3.40;;
19965;SDS011;10144;50.874;4.762;2022-08-19T10:02:58;6.20;;;3.30;;
19965;SDS011;10144;50.874;4.762;2022-08-19T10:05:25;10.75;;;3.17;;
19965;SDS011;10144;50.874;4.762;2022-08-19T10:08:10;8.70;;;3.60;;
19965;SDS011;10144;50.874;4.762;2022-08-19T10:10:42;6.85;;;3.22;;
19965;SDS011;10144;50.874;4.762;2022-08-19T10:13:13;6.45;;;3.63;;
19965;SDS011;10144;50.874;4.762;2022-08-19T10:15:42;7.03;;;3.60;;
19965;SDS011;10144;50.874;4.762;2022-08-19T10:18:10;7.80;;;3.47;;
19965;SDS011;10144;50.874;4.762;2022-08-19T10:20:37;5.97;;;3.55;;
19965;SDS011;10144;50.874;4.762;2022-08-19T10:23:03;8.18;;;3.92;;
19965;SDS011;10144;50.874;4.762;2022-08-19T10:25:32;6.60;;;3.55;;
19965;SDS011;10144;50.874;4.762;2022-08-19T10:28:03;6.93;;;3.90;;
19965;SDS011;10144;50.874;4.762;2022-08-19T10:30:32;7.22;;;3.28;;
19965;SDS011;10144;50.874;4.762;2022-08-19T10:33:02;5.55;;;3.40;;
19965;SDS011;10144;50.874;4.762;2022-08-19T10:35:31;7.90;;;3.60;;
19965;SDS011;10144;50.874;4.762;2022-08-19T10:37:59;10.63;;;3.42;;
19965;SDS011;10144;50.874;4.762;2022-08-19T10:40:29;8.82;;;3.78;;
19965;SDS011;10144;50.874;4.762;2022-08-19T10:42:58;6.82;;;3.90;;
19965;SDS011;10144;50.874;4.762;2022-08-19T10:45:26;10.00;;;4.35;;
19965;SDS011;10144;50.874;4.762;2022-08-19T10:47:53;7.43;;;3.95;;
19965;SDS011;10144;50.874;4.762;2022-08-19T10:50:36;9.60;;;3.80;;
19965;SDS011;10144;50.874;4.762;2022-08-19T10:53:21;5.70;;;3.92;;
19965;SDS011;10144;50.874;4.762;2022-08-19T10:58:39;8.80;;;4.15;;
19965;SDS011;10144;50.874;4.762;2022-08-19T11:01:08;7.07;;;4.25;;
19965;SDS011;10144;50.874;4.762;2022-08-19T11:03:35;7.47;;;4.25;;
19965;SDS011;10144;50.874;4.762;2022-08-19T11:06:05;7.90;;;3.85;;
19965;SDS011;10144;50.874;4.762;2022-08-19T11:08:34;6.38;;;3.63;;
19965;SDS011;10144;50.874;4.762;2022-08-19T11:11:02;8.27;;;4.22;;
19965;SDS011;10144;50.874;4.762;2022-08-19T11:13:30;8.02;;;3.78;;
19965;SDS011;10144;50.874;4.762;2022-08-19T11:16:03;7.30;;;3.67;;
19965;SDS011;10144;50.874;4.762;2022-08-19T11:18:37;6.47;;;3.40;;
19965;SDS011;10144;50.874;4.762;2022-08-19T11:21:09;8.65;;;3.20;;
19965;SDS011;10144;50.874;4.762;2022-08-19T11:23:42;5.43;;;3.03;;
19965;SDS011;10144;50.874;4.762;2022-08-19T11:26:09;8.32;;;3.00;;
19965;SDS011;10144;50.874;4.762;2022-08-19T11:28:36;6.40;;;3.30;;
19965;SDS011;10144;50.874;4.762;2022-08-19T11:31:02;7.30;;;2.95;;
19965;SDS011;10144;50.874;4.762;2022-08-19T11:33:29;5.75;;;3.30;;
19965;SDS011;10144;50.874;4.762;2022-08-19T11:35:58;5.03;;;3.10;;
19965;SDS011;10144;50.874;4.762;2022-08-19T11:38:26;5.43;;;2.78;;
19965;SDS011;10144;50.874;4.762;2022-08-19T11:40:56;7.05;;;3.40;;
19965;SDS011;10144;50.874;4.762;2022-08-19T11:43:25;7.70;;;3.40;;
19965;SDS011;10144;50.874;4.762;2022-08-19T11:45:53;6.35;;;3.38;;
19965;SDS011;10144;50.874;4.762;2022-08-19T11:48:20;11.90;;;3.60;;
19965;SDS011;10144;50.874;4.762;2022-08-19T11:50:48;9.00;;;3.75;;
19965;SDS011;10144;50.874;4.762;2022-08-19T11:53:15;7.93;;;3.70;;
19965;SDS011;10144;50.874;4.762;2022-08-19T11:55:43;8.82;;;3.40;;
19965;SDS011;10144;50.874;4.762;2022-08-19T11:58:11;7.22;;;3.13;;
19965;SDS011;10144;50.874;4.762;2022-08-19T12:00:41;7.68;;;3.60;;
19965;SDS011;10144;50.874;4.762;2022-08-19T12:03:07;6.15;;;3.97;;
19965;SDS011;10144;50.874;4.762;2022-08-19T12:05:36;8.45;;;3.78;;
19965;SDS011;10144;50.874;4.762;2022-08-19T12:08:05;7.32;;;4.10;;
19965;SDS011;10144;50.874;4.762;2022-08-19T12:10:33;9.40;;;4.20;;
19965;SDS011;10144;50.874;4.762;2022-08-19T12:12:59;10.95;;;4.00;;
19965;SDS011;10144;50.874;4.762;2022-08-19T12:15:25;8.50;;;4.45;;
19965;SDS011;10144;50.874;4.762;2022-08-19T12:17:57;9.07;;;4.18;;
19965;SDS011;10144;50.874;4.762;2022-08-19T12:20:38;9.70;;;4.90;;
19965;SDS011;10144;50.874;4.762;2022-08-19T12:25:35;9.88;;;5.97;;
19965;SDS011;10144;50.874;4.762;2022-08-19T12:28:02;10.40;;;5.45;;
19965;SDS011;10144;50.874;4.762;2022-08-19T12:30:28;11.45;;;6.35;;
19965;SDS011;10144;50.874;4.762;2022-08-19T12:32:55;13.18;;;5.95;;
19965;SDS011;10144;50.874;4.762;2022-08-19T12:35:21;12.20;;;6.20;;
19965;SDS011;10144;50.874;4.762;2022-08-19T12:37:47;11.48;;;6.40;;
19965;SDS011;10144;50.874;4.762;2022-08-19T12:40:15;14.00;;;6.20;;
19965;SDS011;10144;50.874;4.762;2022-08-19T12:42:42;10.52;;;6.13;;
19965;SDS011;10144;50.874;4.762;2022-08-19T12:45:13;15.48;;;6.22;;
19965;SDS011;10144;50.874;4.762;2022-08-19T12:47:42;11.30;;;5.90;;
19965;SDS011;10144;50.874;4.762;2022-08-19T12:50:11;11.77;;;6.00;;
19965;SDS011;10144;50.874;4.762;2022-08-19T12:52:38;11.77;;;5.88;;
19965;SDS011;10144;50.874;4.762;2022-08-19T12:55:07;10.40;;;5.57;;
19965;SDS011;10144;50.874;4.762;2022-08-19T12:57:36;13.30;;;6.15;;
19965;SDS011;10144;50.874;4.762;2022-08-19T13:00:09;11.93;;;6.18;;
19965;SDS011;10144;50.874;4.762;2022-08-19T13:02:38;11.20;;;5.88;;
19965;SDS011;10144;50.874;4.762;2022-08-19T13:05:06;10.07;;;5.72;;
19965;SDS011;10144;50.874;4.762;2022-08-19T13:07:34;12.20;;;5.80;;
19965;SDS011;10144;50.874;4.762;2022-08-19T13:09:59;9.80;;;5.35;;
19965;SDS011;10144;50.874;4.762;2022-08-19T13:12:25;10.60;;;5.72;;
19965;SDS011;10144;50.874;4.762;2022-08-19T13:14:52;6.35;;;4.78;;
19965;SDS011;10144;50.874;4.762;2022-08-19T13:17:19;7.32;;;4.65;;
19965;SDS011;10144;50.874;4.762;2022-08-19T13:19:45;8.25;;;4.88;;
19965;SDS011;10144;50.874;4.762;2022-08-19T13:22:11;7.20;;;4.43;;
19965;SDS011;10144;50.874;4.762;2022-08-19T13:24:37;7.35;;;4.50;;
19965;SDS011;10144;50.874;4.762;2022-08-19T13:27:04;7.72;;;4.25;;
19965;SDS011;10144;50.874;4.762;2022-08-19T13:29:30;7.07;;;4.15;;
19965;SDS011;10144;50.874;4.762;2022-08-19T13:32:14;5.10;;;3.83;;
19965;SDS011;10144;50.874;4.762;2022-08-19T13:34:59;8.82;;;4.35;;
19965;SDS011;10144;50.874;4.762;2022-08-19T13:37:24;7.93;;;4.55;;
19965;SDS011;10144;50.874;4.762;2022-08-19T13:40:19;5.60;;;3.78;;
19965;SDS011;10144;50.874;4.762;2022-08-19T13:46:11;5.78;;;3.33;;
19965;SDS011;10144;50.874;4.762;2022-08-19T13:52:02;4.57;;;3.10;;
19965;SDS011;10144;50.874;4.762;2022-08-19T13:54:29;4.15;;;2.42;;
19965;SDS011;10144;50.874;4.762;2022-08-19T13:56:55;4.53;;;2.60;;
19965;SDS011;10144;50.874;4.762;2022-08-19T13:59:23;9.23;;;2.78;;
19965;SDS011;10144;50.874;4.762;2022-08-19T14:01:49;4.13;;;2.78;;
19965;SDS011;10144;50.874;4.762;2022-08-19T14:04:14;5.63;;;2.75;;
19965;SDS011;10144;50.874;4.762;2022-08-19T14:06:40;5.80;;;2.33;;
19965;SDS011;10144;50.874;4.762;2022-08-19T14:09:06;4.38;;;2.30;;
19965;SDS011;10144;50.874;4.762;2022-08-19T14:11:32;5.35;;;2.13;;
19965;SDS011;10144;50.874;4.762;2022-08-19T14:13:58;4.35;;;1.88;;
19965;SDS011;10144;50.874;4.762;2022-08-19T14:16:23;6.03;;;1.90;;
19965;SDS011;10144;50.874;4.762;2022-08-19T14:18:49;2.03;;;1.50;;
19965;SDS011;10144;50.874;4.762;2022-08-19T14:21:16;2.67;;;1.60;;
19965;SDS011;10144;50.874;4.762;2022-08-19T14:23:45;3.08;;;1.60;;
19965;SDS011;10144;50.874;4.762;2022-08-19T14:26:13;5.28;;;2.00;;
19965;SDS011;10144;50.874;4.762;2022-08-19T14:28:41;2.95;;;1.67;;
19965;SDS011;10144;50.874;4.762;2022-08-19T14:31:08;3.42;;;1.65;;
19965;SDS011;10144;50.874;4.762;2022-08-19T14:33:37;2.92;;;1.80;;
19965;SDS011;10144;50.874;4.762;2022-08-19T14:36:04;4.10;;;1.85;;
19965;SDS011;10144;50.874;4.762;2022-08-19T14:38:30;3.03;;;1.70;;
19965;SDS011;10144;50.874;4.762;2022-08-19T14:41:05;2.22;;;1.58;;
19965;SDS011;10144;50.874;4.762;2022-08-19T14:43:42;4.10;;;1.90;;
19965;SDS011;10144;50.874;4.762;2022-08-19T14:46:11;4.40;;;1.90;;
19965;SDS011;10144;50.874;4.762;2022-08-19T14:48:38;3.83;;;1.85;;
19965;SDS011;10144;50.874;4.762;2022-08-19T14:51:05;2.47;;;1.73;;
19965;SDS011;10144;50.874;4.762;2022-08-19T14:53:32;3.28;;;1.50;;
19965;SDS011;10144;50.874;4.762;2022-08-19T14:55:59;3.38;;;1.50;;
19965;SDS011;10144;50.874;4.762;2022-08-19T14:58:26;6.22;;;1.70;;
19965;SDS011;10144;50.874;4.762;2022-08-19T15:00:53;4.53;;;1.52;;
19965;SDS011;10144;50.874;4.762;2022-08-19T15:03:19;3.00;;;1.85;;
19965;SDS011;10144;50.874;4.762;2022-08-19T15:05:46;3.67;;;1.60;;
19965;SDS011;10144;50.874;4.762;2022-08-19T15:08:21;6.38;;;1.50;;
19965;SDS011;10144;50.874;4.762;2022-08-19T15:10:47;3.70;;;1.40;;
19965;SDS011;10144;50.874;4.762;2022-08-19T15:13:13;6.55;;;1.48;;
19965;SDS011;10144;50.874;4.762;2022-08-19T15:15:39;5.88;;;1.35;;
19965;SDS011;10144;50.874;4.762;2022-08-19T15:18:04;3.83;;;1.20;;
19965;SDS011;10144;50.874;4.762;2022-08-19T15:20:30;4.03;;;1.30;;
19965;SDS011;10144;50.874;4.762;2022-08-19T15:22:56;2.45;;;1.40;;
19965;SDS011;10144;50.874;4.762;2022-08-19T15:25:23;8.68;;;1.80;;
19965;SDS011;10144;50.874;4.762;2022-08-19T15:27:49;6.75;;;1.60;;
19965;SDS011;10144;50.874;4.762;2022-08-19T15:30:20;3.45;;;1.60;;
19965;SDS011;10144;50.874;4.762;2022-08-19T15:32:49;3.25;;;1.42;;
19965;SDS011;10144;50.874;4.762;2022-08-19T15:35:17;4.20;;;1.20;;
19965;SDS011;10144;50.874;4.762;2022-08-19T15:37:44;1.17;;;1.08;;
19965;SDS011;10144;50.874;4.762;2022-08-19T15:40:13;2.15;;;0.80;;
19965;SDS011;10144;50.874;4.762;2022-08-19T15:42:39;4.30;;;1.20;;
19965;SDS011;10144;50.874;4.762;2022-08-19T15:45:07;2.60;;;0.80;;
19965;SDS011;10144;50.874;4.762;2022-08-19T15:47:34;1.55;;;0.82;;
19965;SDS011;10144;50.874;4.762;2022-08-19T15:50:00;2.33;;;0.80;;
19965;SDS011;10144;50.874;4.762;2022-08-19T15:55:11;2.05;;;0.73;;
19965;SDS011;10144;50.874;4.762;2022-08-19T15:57:37;2.60;;;0.60;;
19965;SDS011;10144;50.874;4.762;2022-08-19T16:00:21;7.65;;;1.20;;
19965;SDS011;10144;50.874;4.762;2022-08-19T16:03:05;2.75;;;0.50;;
19965;SDS011;10144;50.874;4.762;2022-08-19T16:05:49;2.97;;;0.60;;
19965;SDS011;10144;50.874;4.762;2022-08-19T16:08:33;1.95;;;0.60;;
19965;SDS011;10144;50.874;4.762;2022-08-19T16:10:59;1.20;;;0.50;;
19965;SDS011;10144;50.874;4.762;2022-08-19T16:13:24;1.65;;;0.82;;
19965;SDS011;10144;50.874;4.762;2022-08-19T16:15:50;1.65;;;0.70;;
19965;SDS011;10144;50.874;4.762;2022-08-19T16:18:21;2.28;;;0.90;;
19965;SDS011;10144;50.874;4.762;2022-08-19T16:20:48;1.38;;;0.82;;
19965;SDS011;10144;50.874;4.762;2022-08-19T16:23:15;1.10;;;0.80;;
19965;SDS011;10144;50.874;4.762;2022-08-19T16:25:42;1.00;;;0.90;;
19965;SDS011;10144;50.874;4.762;2022-08-19T16:28:08;1.33;;;0.82;;
19965;SDS011;10144;50.874;4.762;2022-08-19T16:30:34;2.38;;;1.27;;
19965;SDS011;10144;50.874;4.762;2022-08-19T16:33:01;2.83;;;1.00;;
19965;SDS011;10144;50.874;4.762;2022-08-19T16:35:27;2.78;;;1.10;;
19965;SDS011;10144;50.874;4.762;2022-08-19T16:37:52;3.50;;;1.10;;
19965;SDS011;10144;50.874;4.762;2022-08-19T16:40:18;1.60;;;1.05;;
19965;SDS011;10144;50.874;4.762;2022-08-19T16:42:43;3.70;;;1.23;;
19965;SDS011;10144;50.874;4.762;2022-08-19T16:45:09;2.67;;;1.27;;
19965;SDS011;10144;50.874;4.762;2022-08-19T16:47:35;1.90;;;1.20;;
19965;SDS011;10144;50.874;4.762;2022-08-19T16:50:00;3.60;;;1.35;;
19965;SDS011;10144;50.874;4.762;2022-08-19T16:52:26;2.40;;;1.40;;
19965;SDS011;10144;50.874;4.762;2022-08-19T16:54:52;2.35;;;1.17;;
19965;SDS011;10144;50.874;4.762;2022-08-19T16:57:20;3.45;;;1.42;;
19965;SDS011;10144;50.874;4.762;2022-08-19T16:59:47;2.25;;;1.27;;
19965;SDS011;10144;50.874;4.762;2022-08-19T17:02:19;2.72;;;1.40;;
19965;SDS011;10144;50.874;4.762;2022-08-19T17:04:47;2.15;;;1.20;;
19965;SDS011;10144;50.874;4.762;2022-08-19T17:07:15;2.17;;;1.20;;
19965;SDS011;10144;50.874;4.762;2022-08-19T17:09:41;2.90;;;1.70;;
19965;SDS011;10144;50.874;4.762;2022-08-19T17:12:07;4.35;;;1.50;;
19965;SDS011;10144;50.874;4.762;2022-08-19T17:14:33;4.70;;;1.50;;
19965;SDS011;10144;50.874;4.762;2022-08-19T17:16:59;5.55;;;1.25;;
19965;SDS011;10144;50.874;4.762;2022-08-19T17:19:27;4.45;;;1.38;;
19965;SDS011;10144;50.874;4.762;2022-08-19T17:21:52;2.78;;;1.40;;
19965;SDS011;10144;50.874;4.762;2022-08-19T17:24:18;2.40;;;1.50;;
19965;SDS011;10144;50.874;4.762;2022-08-19T17:26:44;4.10;;;1.40;;
19965;SDS011;10144;50.874;4.762;2022-08-19T17:29:11;4.35;;;1.50;;
19965;SDS011;10144;50.874;4.762;2022-08-19T17:31:36;4.05;;;1.50;;
19965;SDS011;10144;50.874;4.762;2022-08-19T17:34:02;2.90;;;1.60;;
19965;SDS011;10144;50.874;4.762;2022-08-19T17:36:30;3.15;;;1.55;;
19965;SDS011;10144;50.874;4.762;2022-08-19T17:38:57;3.60;;;1.23;;
19965;SDS011;10144;50.874;4.762;2022-08-19T17:41:25;3.10;;;1.52;;
19965;SDS011;10144;50.874;4.762;2022-08-19T17:43:52;2.90;;;1.60;;
19965;SDS011;10144;50.874;4.762;2022-08-19T17:46:19;4.25;;;1.45;;
19965;SDS011;10144;50.874;4.762;2022-08-19T17:48:46;2.85;;;1.50;;
19965;SDS011;10144;50.874;4.762;2022-08-19T17:53:43;3.95;;;1.75;;
19965;SDS011;10144;50.874;4.762;2022-08-19T17:56:13;4.00;;;1.80;;
19965;SDS011;10144;50.874;4.762;2022-08-19T17:58:42;4.00;;;1.63;;
19965;SDS011;10144;50.874;4.762;2022-08-19T18:01:15;7.75;;;2.00;;
19965;SDS011;10144;50.874;4.762;2022-08-19T18:03:45;3.47;;;2.10;;
19965;SDS011;10144;50.874;4.762;2022-08-19T18:06:14;4.97;;;2.00;;
19965;SDS011;10144;50.874;4.762;2022-08-19T18:08:46;3.47;;;1.80;;
19965;SDS011;10144;50.874;4.762;2022-08-19T18:11:21;5.45;;;2.10;;